Time;durP1;ratioP1;P1;durP2;ratioP2;P2;SDS_P1;SDS_P2;PMS_P1;PMS_P2;Temp;Humidity;BMP_temperature;BMP_pressure;BME280_temperature;BME280_humidity;BME280_pressure;Samples;Min_cycle;Max_cycle;Signal;HPM_P1;HPM_P2
2021/10/08 00:01:40;;;;;;;476.77;353.87;;;;;;;;;;5022052;28;20039;-67
2021/10/08 00:04:05;;;;;;;478.07;346.07;;;;;;;;;;5017799;28;20021;-67
2021/10/08 00:06:31;;;;;;;472.50;340.23;;;;;;;;;;5022518;28;20025;-67
2021/10/08 00:08:57;;;;;;;471.60;340.33;;;;;;;;;;5023735;28;20022;-67
2021/10/08 00:11:22;;;;;;;475.77;343.90;;;;;;;;;;5021648;28;20030;-67
2021/10/08 00:13:47;;;;;;;477.97;351.27;;;;;;;;;;5018809;28;20110;-67
2021/10/08 00:16:13;;;;;;;475.03;342.37;;;;;;;;;;5022457;28;20406;-67
2021/10/08 00:18:38;;;;;;;470.40;337.13;;;;;;;;;;5023215;28;20175;-67
2021/10/08 00:21:04;;;;;;;477.67;348.33;;;;;;;;;;5019403;28;20526;-66
2021/10/08 00:23:30;;;;;;;476.87;341.17;;;;;;;;;;5019001;28;20026;-66
2021/10/08 00:25:55;;;;;;;473.53;340.77;;;;;;;;;;5022225;28;20446;-66
2021/10/08 00:28:21;;;;;;;472.07;332.50;;;;;;;;;;5023000;28;20029;-66
2021/10/08 00:30:46;;;;;;;476.07;338.47;;;;;;;;;;5017823;28;20131;-67
2021/10/08 00:33:11;;;;;;;477.57;345.57;;;;;;;;;;5018339;28;20036;-66
2021/10/08 00:35:37;;;;;;;477.17;341.77;;;;;;;;;;5023126;28;20013;-67
2021/10/08 00:38:06;;;;;;;477.27;340.83;;;;;;;;;;5023940;28;20453;-67
2021/10/08 00:40:32;;;;;;;474.57;338.17;;;;;;;;;;5018839;28;20026;-67
2021/10/08 00:42:58;;;;;;;477.37;351.10;;;;;;;;;;5020289;28;20032;-67
2021/10/08 00:45:23;;;;;;;478.63;350.30;;;;;;;;;;5022683;28;20029;-66
2021/10/08 00:47:56;;;;;;;473.53;339.47;;;;;;;;;;5020030;28;20013;-67
2021/10/08 00:50:21;;;;;;;478.03;352.87;;;;;;;;;;5022652;28;20061;-66
2021/10/08 00:52:46;;;;;;;478.83;355.70;;;;;;;;;;5022071;28;20029;-65
2021/10/08 00:55:11;;;;;;;478.60;349.50;;;;;;;;;;5022710;28;20132;-65
2021/10/08 00:57:37;;;;;;;479.97;355.50;;;;;;;;;;5019060;28;20399;-66
2021/10/08 01:00:03;;;;;;;479.93;355.80;;;;;;;;;;5017261;28;20366;-66
2021/10/08 01:02:29;;;;;;;481.93;357.13;;;;;;;;;;5023772;28;20026;-66
2021/10/08 01:04:56;;;;;;;479.43;340.53;;;;;;;;;;5021047;28;20033;-66
2021/10/08 01:07:22;;;;;;;478.27;350.70;;;;;;;;;;5020198;28;20124;-67
2021/10/08 01:09:47;;;;;;;479.23;354.73;;;;;;;;;;5017196;28;20052;-66
2021/10/08 01:12:13;;;;;;;478.53;353.00;;;;;;;;;;5018090;28;20069;-67
2021/10/08 01:14:38;;;;;;;478.40;347.87;;;;;;;;;;5021558;28;20715;-66
2021/10/08 01:17:16;;;;;;;476.20;347.67;;;;;;;;;;5020379;28;20034;-67
2021/10/08 01:19:43;;;;;;;481.77;356.57;;;;;;;;;;5019852;28;20483;-66
2021/10/08 01:22:08;;;;;;;471.80;333.90;;;;;;;;;;5020455;28;20072;-66
2021/10/08 01:24:33;;;;;;;471.83;342.97;;;;;;;;;;5022191;28;20053;-66
2021/10/08 01:27:01;;;;;;;470.90;337.23;;;;;;;;;;5020851;28;20113;-66
2021/10/08 01:29:26;;;;;;;468.57;331.77;;;;;;;;;;5018641;28;20021;-66
2021/10/08 01:31:51;;;;;;;480.97;359.37;;;;;;;;;;5022716;28;20394;-66
2021/10/08 01:34:16;;;;;;;476.63;342.97;;;;;;;;;;5023290;28;20053;-66
2021/10/08 01:36:42;;;;;;;471.80;342.43;;;;;;;;;;5018850;28;20030;-67
2021/10/08 01:39:07;;;;;;;474.63;351.87;;;;;;;;;;5017186;28;20038;-67
2021/10/08 01:41:32;;;;;;;477.13;353.10;;;;;;;;;;5020640;28;20529;-66
2021/10/08 01:43:57;;;;;;;472.90;344.63;;;;;;;;;;5020437;28;20030;-69
2021/10/08 01:46:23;;;;;;;478.27;355.10;;;;;;;;;;5017731;28;20025;-69
2021/10/08 01:48:48;;;;;;;475.10;348.90;;;;;;;;;;5018086;28;20026;-69
2021/10/08 01:51:13;;;;;;;475.43;348.57;;;;;;;;;;5019762;28;20081;-68
2021/10/08 01:53:39;;;;;;;474.53;341.63;;;;;;;;;;5019463;28;20351;-69
2021/10/08 01:56:04;;;;;;;472.83;347.97;;;;;;;;;;5015678;28;20026;-68
2021/10/08 01:58:29;;;;;;;472.00;345.43;;;;;;;;;;5018176;28;20459;-68
2021/10/08 02:00:55;;;;;;;473.70;345.90;;;;;;;;;;5022828;28;20063;-68
2021/10/08 02:03:20;;;;;;;473.90;341.07;;;;;;;;;;5016899;28;20245;-68
2021/10/08 02:05:45;;;;;;;476.60;347.70;;;;;;;;;;5016994;28;20021;-68
2021/10/08 02:08:10;;;;;;;474.57;343.13;;;;;;;;;;5018187;28;20033;-68
2021/10/08 02:10:36;;;;;;;478.83;354.67;;;;;;;;;;5017696;28;20018;-68
2021/10/08 02:13:01;;;;;;;472.77;349.30;;;;;;;;;;5015638;28;20021;-67
2021/10/08 02:15:26;;;;;;;469.33;328.53;;;;;;;;;;5017060;28;20021;-66
2021/10/08 02:17:52;;;;;;;471.13;347.20;;;;;;;;;;5017670;28;20103;-67
2021/10/08 02:20:17;;;;;;;468.40;334.60;;;;;;;;;;5021569;28;20032;-67
2021/10/08 02:22:42;;;;;;;475.93;347.47;;;;;;;;;;5017753;28;20021;-67
2021/10/08 02:25:08;;;;;;;474.80;347.37;;;;;;;;;;5015455;28;20018;-67
2021/10/08 02:27:33;;;;;;;469.13;330.33;;;;;;;;;;5019305;28;20017;-67
2021/10/08 02:29:58;;;;;;;470.33;344.10;;;;;;;;;;5023167;28;20025;-67
2021/10/08 02:32:24;;;;;;;467.50;327.13;;;;;;;;;;5024481;28;20018;-64
2021/10/08 02:34:49;;;;;;;474.40;345.67;;;;;;;;;;5015890;28;20028;-63
2021/10/08 02:37:14;;;;;;;472.60;345.27;;;;;;;;;;5019463;28;20593;-63
2021/10/08 02:39:39;;;;;;;469.07;332.70;;;;;;;;;;5024221;28;20072;-65
2021/10/08 02:42:05;;;;;;;469.63;330.50;;;;;;;;;;5022691;28;20438;-64
2021/10/08 02:44:31;;;;;;;469.30;333.43;;;;;;;;;;5022146;28;20021;-64
2021/10/08 02:46:56;;;;;;;469.80;334.50;;;;;;;;;;5029299;28;20102;-64
2021/10/08 02:49:21;;;;;;;472.00;330.70;;;;;;;;;;5021258;28;20060;-64
2021/10/08 02:51:50;;;;;;;470.47;329.70;;;;;;;;;;5023160;28;20479;-63
2021/10/08 02:54:15;;;;;;;475.07;337.03;;;;;;;;;;5017729;28;20022;-63
2021/10/08 02:56:41;;;;;;;470.03;326.70;;;;;;;;;;5019657;28;20083;-63
2021/10/08 02:59:06;;;;;;;471.33;330.43;;;;;;;;;;5024621;28;20375;-63
2021/10/08 03:01:31;;;;;;;475.87;325.63;;;;;;;;;;5021605;28;20026;-63
2021/10/08 03:03:58;;;;;;;469.07;317.40;;;;;;;;;;5016106;28;20029;-63
2021/10/08 03:06:24;;;;;;;470.27;314.83;;;;;;;;;;5025128;28;20033;-63
2021/10/08 03:08:49;;;;;;;470.23;323.90;;;;;;;;;;5028873;28;20033;-60
2021/10/08 03:11:14;;;;;;;469.53;323.37;;;;;;;;;;5020480;28;20032;-62
2021/10/08 03:13:40;;;;;;;473.93;323.17;;;;;;;;;;5020388;28;20017;-62
2021/10/08 03:16:05;;;;;;;468.57;314.37;;;;;;;;;;5026423;28;20083;-63
2021/10/08 03:18:30;;;;;;;468.33;310.23;;;;;;;;;;5025834;28;20030;-58
2021/10/08 03:20:55;;;;;;;469.70;321.27;;;;;;;;;;5016193;28;20066;-61
2021/10/08 03:23:21;;;;;;;470.50;317.37;;;;;;;;;;5026343;28;20040;-58
2021/10/08 03:25:46;;;;;;;471.90;318.53;;;;;;;;;;5032042;28;20028;-58
2021/10/08 03:28:13;;;;;;;466.20;314.37;;;;;;;;;;5026818;28;20037;-60
2021/10/08 03:30:38;;;;;;;468.07;316.73;;;;;;;;;;5020003;28;20113;-63
2021/10/08 03:33:03;;;;;;;466.10;305.70;;;;;;;;;;5026708;28;20116;-62
2021/10/08 03:35:29;;;;;;;468.03;312.17;;;;;;;;;;5032029;28;20148;-60
2021/10/08 03:38:10;;;;;;;468.03;324.27;;;;;;;;;;5029354;28;20034;-62
2021/10/08 03:40:36;;;;;;;466.17;314.53;;;;;;;;;;5022983;28;20041;-63
2021/10/08 03:43:01;;;;;;;463.87;312.37;;;;;;;;;;5019577;28;20025;-63
2021/10/08 03:45:46;;;;;;;468.10;317.13;;;;;;;;;;5027622;28;20017;-64
2021/10/08 03:48:22;;;;;;;472.23;310.48;;;;;;;;;;5033075;28;20382;-63
2021/10/08 03:50:48;;;;;;;467.47;309.93;;;;;;;;;;5024541;28;20064;-63
2021/10/08 03:53:13;;;;;;;462.10;305.87;;;;;;;;;;5019905;28;20025;-62
2021/10/08 03:55:38;;;;;;;465.63;310.03;;;;;;;;;;5024421;28;20364;-63
2021/10/08 03:58:04;;;;;;;465.17;299.43;;;;;;;;;;5027849;28;20025;-63
2021/10/08 04:00:29;;;;;;;466.23;304.30;;;;;;;;;;5024094;28;20033;-63
2021/10/08 04:02:55;;;;;;;467.57;306.43;;;;;;;;;;5021734;28;20028;-62
2021/10/08 04:05:20;;;;;;;466.73;299.20;;;;;;;;;;5032957;28;20021;-61
2021/10/08 04:07:46;;;;;;;471.67;311.57;;;;;;;;;;5027630;28;20033;-63
2021/10/08 04:10:11;;;;;;;463.30;307.60;;;;;;;;;;5030182;28;20026;-63
2021/10/08 04:12:36;;;;;;;466.07;311.73;;;;;;;;;;5032952;28;20108;-63
2021/10/08 04:15:02;;;;;;;465.90;310.40;;;;;;;;;;5027924;28;20022;-63
2021/10/08 04:17:28;;;;;;;468.83;313.00;;;;;;;;;;5023326;28;20477;-63
2021/10/08 04:19:53;;;;;;;467.23;312.40;;;;;;;;;;5021858;28;20449;-62
2021/10/08 04:22:18;;;;;;;468.43;318.20;;;;;;;;;;5026982;28;20072;-62
2021/10/08 04:24:43;;;;;;;464.23;305.33;;;;;;;;;;5024975;28;20017;-66
2021/10/08 04:27:09;;;;;;;468.37;309.90;;;;;;;;;;5020238;28;20052;-62
2021/10/08 04:29:34;;;;;;;464.77;305.43;;;;;;;;;;5021627;28;20029;-62
2021/10/08 04:31:59;;;;;;;461.73;301.67;;;;;;;;;;5027507;28;20026;-60
2021/10/08 04:34:24;;;;;;;465.10;309.43;;;;;;;;;;5030366;28;20060;-61
2021/10/08 04:36:50;;;;;;;465.20;303.97;;;;;;;;;;5028965;28;20041;-62
2021/10/08 04:39:15;;;;;;;470.73;311.83;;;;;;;;;;5018259;28;20105;-61
2021/10/08 04:41:40;;;;;;;465.77;293.03;;;;;;;;;;5023577;28;20029;-62
2021/10/08 04:44:06;;;;;;;464.17;295.93;;;;;;;;;;5010126;28;20056;-62
2021/10/08 04:46:31;;;;;;;463.13;289.33;;;;;;;;;;5025063;28;20032;-62
2021/10/08 04:48:57;;;;;;;457.97;282.03;;;;;;;;;;5024994;28;20543;-62
2021/10/08 04:51:22;;;;;;;461.17;289.80;;;;;;;;;;5025079;28;20397;-61
2021/10/08 04:53:47;;;;;;;461.57;293.97;;;;;;;;;;5025156;28;20110;-63
2021/10/08 04:56:12;;;;;;;475.87;305.50;;;;;;;;;;5025660;28;20463;-63
2021/10/08 04:58:38;;;;;;;469.27;298.23;;;;;;;;;;5029138;28;20136;-63
2021/10/08 05:01:03;;;;;;;458.73;278.90;;;;;;;;;;5007847;28;20431;-62
2021/10/08 05:03:29;;;;;;;462.40;289.87;;;;;;;;;;5028407;28;20104;-63
2021/10/08 05:05:54;;;;;;;474.17;320.20;;;;;;;;;;5018442;28;20383;-62
2021/10/08 05:08:20;;;;;;;459.17;283.03;;;;;;;;;;5028814;28;20436;-60
2021/10/08 05:10:46;;;;;;;463.80;285.97;;;;;;;;;;5025823;28;20034;-61
2021/10/08 05:13:12;;;;;;;460.30;285.67;;;;;;;;;;5021912;28;20071;-62
2021/10/08 05:15:37;;;;;;;465.17;305.33;;;;;;;;;;5022341;28;20117;-63
2021/10/08 05:18:02;;;;;;;462.40;289.93;;;;;;;;;;5028382;28;20033;-64
2021/10/08 05:20:28;;;;;;;23.00;11.95;;;;;;;;;;5005615;28;20037;-63
2021/10/08 05:22:53;;;;;;;19.83;11.40;;;;;;;;;;5007850;28;20456;-63
2021/10/08 05:25:18;;;;;;;20.85;10.75;;;;;;;;;;5017577;28;20121;-64
2021/10/08 05:27:44;;;;;;;20.77;11.38;;;;;;;;;;5022982;28;20034;-63
2021/10/08 05:30:09;;;;;;;24.17;13.52;;;;;;;;;;5022026;28;20025;-64
2021/10/08 05:32:35;;;;;;;21.55;12.55;;;;;;;;;;5019561;28;20033;-64
2021/10/08 05:35:00;;;;;;;24.48;20.90;;;;;;;;;;5018098;28;20368;-64
2021/10/08 05:37:25;;;;;;;24.05;21.48;;;;;;;;;;5019171;28;20034;-65
2021/10/08 05:39:50;;;;;;;54.85;50.38;;;;;;;;;;5023180;28;20160;-65
2021/10/08 05:42:16;;;;;;;40.47;36.33;;;;;;;;;;5020289;28;20433;-60
2021/10/08 05:44:41;;;;;;;72.07;66.95;;;;;;;;;;5018583;28;20144;-65
2021/10/08 05:47:06;;;;;;;82.15;76.53;;;;;;;;;;5024931;28;20061;-64
2021/10/08 05:49:32;;;;;;;24.15;13.30;;;;;;;;;;5021073;28;20057;-64
2021/10/08 05:51:58;;;;;;;22.70;12.43;;;;;;;;;;5019015;28;20025;-62
2021/10/08 05:54:23;;;;;;;18.70;11.07;;;;;;;;;;5020161;28;20029;-62
2021/10/08 05:56:48;;;;;;;22.33;13.48;;;;;;;;;;5022789;28;20045;-64
2021/10/08 05:59:13;;;;;;;24.70;12.13;;;;;;;;;;5022617;28;20018;-63
2021/10/08 06:01:39;;;;;;;32.10;14.98;;;;;;;;;;5019110;28;20033;-64
2021/10/08 06:04:06;;;;;;;19.00;10.75;;;;;;;;;;5019030;28;20022;-64
2021/10/08 06:06:31;;;;;;;24.75;12.95;;;;;;;;;;5019313;28;20057;-64
2021/10/08 06:08:57;;;;;;;25.08;12.07;;;;;;;;;;5017272;28;20634;-64
2021/10/08 06:11:22;;;;;;;18.75;11.30;;;;;;;;;;5018625;28;20463;-64
2021/10/08 06:13:47;;;;;;;26.48;12.77;;;;;;;;;;5018200;28;20025;-63
2021/10/08 06:16:12;;;;;;;19.98;15.05;;;;;;;;;;5019003;28;20026;-64
2021/10/08 06:18:38;;;;;;;25.02;12.93;;;;;;;;;;5019987;28;20478;-64
2021/10/08 06:21:03;;;;;;;22.17;12.00;;;;;;;;;;5018260;28;20025;-64
2021/10/08 06:23:28;;;;;;;21.30;16.75;;;;;;;;;;5019441;28;20026;-64
2021/10/08 06:25:54;;;;;;;19.60;11.38;;;;;;;;;;5019062;28;20032;-64
2021/10/08 06:28:19;;;;;;;17.20;10.85;;;;;;;;;;5019554;28;20125;-64
2021/10/08 06:30:44;;;;;;;20.48;12.90;;;;;;;;;;5017555;28;20079;-64
2021/10/08 06:33:09;;;;;;;21.50;11.38;;;;;;;;;;5020547;28;20109;-64
2021/10/08 06:35:35;;;;;;;21.48;12.55;;;;;;;;;;5021493;28;20018;-62
2021/10/08 06:38:00;;;;;;;21.75;14.50;;;;;;;;;;5018498;28;20500;-64
2021/10/08 06:40:26;;;;;;;22.55;13.50;;;;;;;;;;5015933;28;20028;-64
2021/10/08 06:42:51;;;;;;;21.52;14.75;;;;;;;;;;5020672;28;20200;-65
2021/10/08 06:45:16;;;;;;;136.48;127.82;;;;;;;;;;5018980;28;20464;-65
2021/10/08 06:47:41;;;;;;;31.23;25.45;;;;;;;;;;5018753;28;20018;-64
2021/10/08 06:50:07;;;;;;;155.02;144.95;;;;;;;;;;5017850;28;20061;-65
2021/10/08 06:52:32;;;;;;;189.27;177.73;;;;;;;;;;5021601;28;20600;-64
2021/10/08 06:54:58;;;;;;;270.38;252.65;;;;;;;;;;5021793;28;20375;-64
2021/10/08 06:57:23;;;;;;;311.83;290.08;;;;;;;;;;5022103;28;20479;-64
2021/10/08 06:59:48;;;;;;;213.88;201.15;;;;;;;;;;5018859;28;20029;-64
2021/10/08 07:02:14;;;;;;;229.80;216.02;;;;;;;;;;5020765;28;20056;-63
2021/10/08 07:04:39;;;;;;;362.15;336.70;;;;;;;;;;5020610;28;20013;-64
2021/10/08 07:07:04;;;;;;;356.80;333.38;;;;;;;;;;5018924;28;20088;-64
2021/10/08 07:09:30;;;;;;;223.75;210.75;;;;;;;;;;5016730;28;20044;-64
2021/10/08 07:11:55;;;;;;;262.50;247.23;;;;;;;;;;5002508;28;20055;-63
2021/10/08 07:14:20;;;;;;;344.02;322.67;;;;;;;;;;5019915;28;20025;-63
2021/10/08 07:16:46;;;;;;;245.68;231.90;;;;;;;;;;5018001;28;20060;-64
2021/10/08 07:19:14;;;;;;;360.48;337.50;;;;;;;;;;5017956;28;20427;-64
2021/10/08 07:21:42;;;;;;;273.15;258.02;;;;;;;;;;5018608;28;20026;-64
2021/10/08 07:24:07;;;;;;;360.48;337.95;;;;;;;;;;5022507;28;20108;-64
2021/10/08 07:26:33;;;;;;;378.48;354.92;;;;;;;;;;5018145;28;20044;-63
2021/10/08 07:28:58;;;;;;;414.60;388.60;;;;;;;;;;5018820;28;20464;-63
2021/10/08 07:31:23;;;;;;;383.25;359.73;;;;;;;;;;5020786;28;20017;-62
2021/10/08 07:33:49;;;;;;;383.98;360.83;;;;;;;;;;5019520;28;20595;-64
2021/10/08 07:36:14;;;;;;;359.17;337.92;;;;;;;;;;5016260;28;20029;-63
2021/10/08 07:38:39;;;;;;;325.05;306.30;;;;;;;;;;5018231;28;20092;-64
2021/10/08 07:41:05;;;;;;;381.25;358.88;;;;;;;;;;5016372;28;20079;-64
2021/10/08 07:43:31;;;;;;;227.77;216.40;;;;;;;;;;5019300;28;20014;-64
2021/10/08 07:45:56;;;;;;;236.73;224.23;;;;;;;;;;5017948;28;20018;-64
2021/10/08 07:48:22;;;;;;;272.73;258.38;;;;;;;;;;5019649;28;20026;-64
2021/10/08 07:50:47;;;;;;;208.93;197.15;;;;;;;;;;5016440;28;20064;-66
2021/10/08 07:53:12;;;;;;;261.05;247.13;;;;;;;;;;5016208;28;20032;-65
2021/10/08 07:55:37;;;;;;;258.55;244.52;;;;;;;;;;5018984;28;20018;-63
2021/10/08 07:58:03;;;;;;;270.40;255.80;;;;;;;;;;5022723;28;20267;-65
2021/10/08 08:00:28;;;;;;;401.35;376.52;;;;;;;;;;5019090;28;20017;-64
2021/10/08 08:02:53;;;;;;;378.27;356.45;;;;;;;;;;5021482;28;20033;-64
2021/10/08 08:05:18;;;;;;;406.08;380.85;;;;;;;;;;5023111;28;20493;-64
2021/10/08 08:07:44;;;;;;;421.40;394.48;;;;;;;;;;5022591;28;20029;-65
2021/10/08 08:10:10;;;;;;;439.77;410.95;;;;;;;;;;5019860;28;20470;-65
2021/10/08 08:12:35;;;;;;;447.90;419.27;;;;;;;;;;5021565;28;20021;-65
2021/10/08 08:15:01;;;;;;;453.23;422.88;;;;;;;;;;5022008;28;20014;-65
2021/10/08 08:17:26;;;;;;;476.30;443.45;;;;;;;;;;5021309;28;20335;-64
2021/10/08 08:19:52;;;;;;;508.48;472.05;;;;;;;;;;5020526;28;20489;-64
2021/10/08 08:22:17;;;;;;;474.80;442.58;;;;;;;;;;5019695;28;20030;-62
2021/10/08 08:24:42;;;;;;;463.45;432.52;;;;;;;;;;5021068;28;20448;-64
2021/10/08 08:27:08;;;;;;;201.95;191.88;;;;;;;;;;5021594;28;20021;-64
2021/10/08 08:29:33;;;;;;;186.20;177.00;;;;;;;;;;5017407;28;20026;-64
2021/10/08 08:31:58;;;;;;;200.50;190.57;;;;;;;;;;5023051;28;20036;-64
2021/10/08 08:34:25;;;;;;;184.15;174.73;;;;;;;;;;5021914;28;20402;-63
2021/10/08 08:36:50;;;;;;;230.85;218.70;;;;;;;;;;5017596;28;20298;-63
2021/10/08 08:39:16;;;;;;;256.90;243.63;;;;;;;;;;5020137;28;20022;-63
2021/10/08 08:41:42;;;;;;;421.77;396.02;;;;;;;;;;5022207;28;20632;-63
2021/10/08 08:44:07;;;;;;;456.05;427.65;;;;;;;;;;5021864;28;20555;-64
2021/10/08 08:46:33;;;;;;;466.65;435.85;;;;;;;;;;5019872;28;20045;-63
2021/10/08 08:48:59;;;;;;;463.52;435.00;;;;;;;;;;5020223;28;20033;-63
2021/10/08 08:51:25;;;;;;;506.33;470.67;;;;;;;;;;5025005;28;20058;-63
2021/10/08 08:53:51;;;;;;;314.92;297.13;;;;;;;;;;5020671;28;20034;-63
2021/10/08 08:56:16;;;;;;;314.98;298.73;;;;;;;;;;5020260;28;20022;-63
2021/10/08 08:58:42;;;;;;;305.58;290.00;;;;;;;;;;5018955;28;20454;-63
2021/10/08 09:01:07;;;;;;;326.90;309.80;;;;;;;;;;5021465;28;20168;-62
2021/10/08 09:03:32;;;;;;;374.90;354.35;;;;;;;;;;5022771;28;20486;-64
2021/10/08 09:05:57;;;;;;;368.50;348.15;;;;;;;;;;5005453;28;20022;-63
2021/10/08 09:08:32;;;;;;;383.63;362.55;;;;;;;;;;5016147;28;20659;-63
2021/10/08 09:10:59;;;;;;;306.30;290.55;;;;;;;;;;5028025;28;20037;-62
2021/10/08 09:13:27;;;;;;;290.73;276.08;;;;;;;;;;5023326;28;20033;-63
2021/10/08 09:15:54;;;;;;;336.13;317.33;;;;;;;;;;5021418;28;20183;-63
2021/10/08 09:18:21;;;;;;;291.00;276.25;;;;;;;;;;5018627;28;20102;-63
2021/10/08 09:21:05;;;;;;;297.80;282.63;;;;;;;;;;5020605;28;20491;-63
2021/10/08 09:23:35;;;;;;;301.60;286.08;;;;;;;;;;5020885;28;20022;-63
2021/10/08 09:26:00;;;;;;;301.42;285.00;;;;;;;;;;5016234;28;20053;-62
2021/10/08 09:28:26;;;;;;;301.05;285.65;;;;;;;;;;5021721;28;20061;-63
2021/10/08 09:30:51;;;;;;;337.42;319.83;;;;;;;;;;5020861;28;20384;-63
2021/10/08 09:33:19;;;;;;;489.10;459.70;;;;;;;;;;5019641;28;20030;-63
2021/10/08 09:35:46;;;;;;;423.55;398.55;;;;;;;;;;5018657;28;20053;-63
2021/10/08 09:38:13;;;;;;;367.45;348.48;;;;;;;;;;5023464;28;20061;-63
2021/10/08 09:40:47;;;;;;;330.52;313.85;;;;;;;;;;5021785;28;20022;-63
2021/10/08 09:43:33;;;;;;;379.38;359.42;;;;;;;;;;5018470;28;20033;-64
2021/10/08 09:45:59;;;;;;;358.85;340.45;;;;;;;;;;5021147;28;20029;-64
2021/10/08 09:48:26;;;;;;;522.65;489.13;;;;;;;;;;5023156;28;20021;-64
2021/10/08 09:51:05;;;;;;;514.75;481.35;;;;;;;;;;5023139;28;20054;-63
2021/10/08 09:53:37;;;;;;;534.80;500.05;;;;;;;;;;5016022;28;20347;-62
2021/10/08 09:56:03;;;;;;;506.55;473.60;;;;;;;;;;5018006;28;20022;-66
2021/10/08 09:58:48;;;;;;;528.80;493.88;;;;;;;;;;5019661;28;20099;-66
2021/10/08 10:01:23;;;;;;;519.75;485.80;;;;;;;;;;5023788;28;20405;-66
2021/10/08 10:03:54;;;;;;;503.38;468.98;;;;;;;;;;5019620;28;20030;-66
2021/10/08 10:06:20;;;;;;;431.00;405.08;;;;;;;;;;5021526;28;20029;-66
2021/10/08 10:08:47;;;;;;;414.75;391.92;;;;;;;;;;5021868;28;20038;-66
2021/10/08 10:11:14;;;;;;;355.40;336.42;;;;;;;;;;5025415;28;20076;-67
2021/10/08 10:13:40;;;;;;;325.85;309.13;;;;;;;;;;5021350;28;20072;-67
2021/10/08 10:16:06;;;;;;;327.65;310.40;;;;;;;;;;5027063;28;20022;-67
2021/10/08 10:18:31;;;;;;;336.35;318.67;;;;;;;;;;5026228;28;20044;-67
2021/10/08 10:20:56;;;;;;;374.67;355.20;;;;;;;;;;5023308;28;20033;-66
2021/10/08 10:23:23;;;;;;;346.83;328.63;;;;;;;;;;5022892;28;20025;-65
2021/10/08 10:25:49;;;;;;;258.88;246.00;;;;;;;;;;5019569;28;20072;-65
2021/10/08 10:28:14;;;;;;;266.92;254.18;;;;;;;;;;5022306;28;20026;-64
2021/10/08 10:30:41;;;;;;;279.42;265.88;;;;;;;;;;5008350;28;20029;-65
2021/10/08 10:33:06;;;;;;;267.08;254.35;;;;;;;;;;5018274;28;20044;-65
2021/10/08 10:35:42;;;;;;;258.63;245.85;;;;;;;;;;5017491;28;20025;-65
2021/10/08 10:38:25;;;;;;;301.75;286.60;;;;;;;;;;5019714;28;20037;-65
2021/10/08 10:41:09;;;;;;;308.13;292.55;;;;;;;;;;5021230;28;20117;-64
2021/10/08 10:43:39;;;;;;;85.05;80.70;;;;;;;;;;5020450;28;20017;-64
2021/10/08 10:46:20;;;;;;;78.03;74.10;;;;;;;;;;5021100;28;20018;-65
2021/10/08 10:49:10;;;;;;;157.93;150.52;;;;;;;;;;5024276;28;20032;-64
2021/10/08 10:51:35;;;;;;;304.77;289.45;;;;;;;;;;5028101;28;20045;-63
2021/10/08 10:54:00;;;;;;;366.25;346.45;;;;;;;;;;5023071;28;20055;-63
2021/10/08 10:56:38;;;;;;;348.17;330.20;;;;;;;;;;5021745;28;20022;-62
2021/10/08 10:59:22;;;;;;;362.75;343.70;;;;;;;;;;5026420;28;20068;-61
2021/10/08 11:02:04;;;;;;;412.60;390.70;;;;;;;;;;5023909;28;20036;-63
2021/10/08 11:04:29;;;;;;;422.30;399.52;;;;;;;;;;5024639;28;20018;-62
2021/10/08 11:07:04;;;;;;;433.30;409.83;;;;;;;;;;5009565;28;20018;-64
2021/10/08 11:09:29;;;;;;;392.55;371.20;;;;;;;;;;5018010;28;20042;-64
2021/10/08 11:12:13;;;;;;;485.88;459.13;;;;;;;;;;5024386;28;20509;-64
2021/10/08 11:14:38;;;;;;;433.48;410.25;;;;;;;;;;5017680;28;20466;-64
2021/10/08 11:17:24;;;;;;;411.08;389.23;;;;;;;;;;5027272;28;20095;-64
2021/10/08 11:19:49;;;;;;;495.45;467.88;;;;;;;;;;5014883;28;20061;-62
2021/10/08 11:22:15;;;;;;;567.42;536.10;;;;;;;;;;5026031;28;20487;-64
2021/10/08 11:24:41;;;;;;;578.35;544.90;;;;;;;;;;5024767;28;20418;-64
2021/10/08 11:27:06;;;;;;;513.80;484.92;;;;;;;;;;5028516;28;20029;-63
2021/10/08 11:29:36;;;;;;;600.15;564.95;;;;;;;;;;5024584;28;20025;-63
2021/10/08 11:32:05;;;;;;;564.97;532.22;;;;;;;;;;5026007;28;20076;-63
2021/10/08 11:34:30;;;;;;;572.53;540.20;;;;;;;;;;5022150;28;20022;-63
2021/10/08 11:36:57;;;;;;;569.15;537.00;;;;;;;;;;5023488;28;20391;-63
2021/10/08 11:39:23;;;;;;;555.55;524.10;;;;;;;;;;5023934;28;20031;-63
2021/10/08 11:41:59;;;;;;;585.85;552.42;;;;;;;;;;5021173;28;20026;-63
2021/10/08 11:44:28;;;;;;;577.85;545.17;;;;;;;;;;5023768;28;20021;-63
2021/10/08 11:49:56;;;;;;;531.03;501.92;;;;;;;;;;5030520;28;20500;-63
2021/10/08 11:52:32;;;;;;;546.63;516.20;;;;;;;;;;5026164;28;20025;-64
2021/10/08 11:55:01;;;;;;;578.83;546.75;;;;;;;;;;5022348;28;20108;-63
2021/10/08 11:57:26;;;;;;;547.92;517.92;;;;;;;;;;5022241;28;20026;-63
2021/10/08 11:59:56;;;;;;;517.42;489.02;;;;;;;;;;5017853;28;20384;-63
2021/10/08 12:02:22;;;;;;;510.02;482.15;;;;;;;;;;5022233;28;20029;-63
2021/10/08 12:04:57;;;;;;;474.92;449.25;;;;;;;;;;5019058;28;20047;-63
2021/10/08 12:07:22;;;;;;;;;;;;;;;;;;5025692;28;20100;-63
2021/10/08 12:10:04;;;;;;;502.63;475.35;;;;;;;;;;5027218;28;20029;-63
2021/10/08 12:12:30;;;;;;;497.75;470.15;;;;;;;;;;5026726;28;20251;-63
2021/10/08 12:14:55;;;;;;;536.30;504.88;;;;;;;;;;5027684;28;20025;-63
2021/10/08 12:17:20;;;;;;;524.72;495.40;;;;;;;;;;5023972;28;20137;-63
2021/10/08 12:19:45;;;;;;;574.60;540.25;;;;;;;;;;5015801;28;20029;-62
2021/10/08 12:22:23;;;;;;;659.80;617.70;;;;;;;;;;5026400;28;20764;-64
2021/10/08 12:24:50;;;;;;;670.17;626.58;;;;;;;;;;5019601;28;20014;-62
2021/10/08 12:27:15;;;;;;;663.92;619.90;;;;;;;;;;5026372;28;20305;-62
2021/10/08 12:29:48;;;;;;;650.65;607.30;;;;;;;;;;5020193;28;20049;-62
2021/10/08 12:32:15;;;;;;;659.33;614.92;;;;;;;;;;5020215;28;20463;-62
2021/10/08 12:34:48;;;;;;;638.50;596.47;;;;;;;;;;5023389;28;20067;-63
2021/10/08 12:37:32;;;;;;;401.35;379.42;;;;;;;;;;5020072;28;20329;-63
2021/10/08 12:40:01;;;;;;;407.45;385.58;;;;;;;;;;5025718;28;20040;-62
2021/10/08 12:42:28;;;;;;;415.90;393.52;;;;;;;;;;5024423;28;20419;-61
2021/10/08 12:44:59;;;;;;;392.85;372.30;;;;;;;;;;5028848;28;20029;-63
2021/10/08 12:47:28;;;;;;;400.40;379.63;;;;;;;;;;5018521;28;20042;-62
2021/10/08 12:49:58;;;;;;;392.42;371.63;;;;;;;;;;5021908;28;20053;-63
2021/10/08 12:52:38;;;;;;;299.77;284.50;;;;;;;;;;5022440;28;20095;-65
2021/10/08 12:55:07;;;;;;;347.15;329.05;;;;;;;;;;5019740;28;20059;-62
2021/10/08 12:57:32;;;;;;;306.52;289.77;;;;;;;;;;5015066;28;20014;-62
2021/10/08 12:59:57;;;;;;;292.83;277.20;;;;;;;;;;5025448;28;20019;-62
2021/10/08 13:02:24;;;;;;;226.63;214.30;;;;;;;;;;5025379;28;20018;-63
2021/10/08 13:05:02;;;;;;;78.15;72.70;;;;;;;;;;5025728;28;20479;-64
2021/10/08 13:07:27;;;;;;;54.13;49.22;;;;;;;;;;5023882;28;20071;-63
2021/10/08 13:10:09;;;;;;;39.47;35.42;;;;;;;;;;5020250;28;20038;-64
2021/10/08 13:12:43;;;;;;;60.42;56.20;;;;;;;;;;5025435;28;20013;-62
2021/10/08 13:15:10;;;;;;;90.05;85.32;;;;;;;;;;5021151;28;20041;-62
2021/10/08 13:17:35;;;;;;;54.72;50.00;;;;;;;;;;5017160;28;20029;-61
2021/10/08 13:20:02;;;;;;;89.90;84.90;;;;;;;;;;5024243;28;20033;-63
2021/10/08 13:22:28;;;;;;;484.40;455.88;;;;;;;;;;5030061;28;20053;-64
2021/10/08 13:24:53;;;;;;;510.30;480.42;;;;;;;;;;5023439;28;20063;-63
2021/10/08 13:27:19;;;;;;;170.63;161.45;;;;;;;;;;5024670;28;20033;-62
2021/10/08 13:29:44;;;;;;;75.63;71.43;;;;;;;;;;5027509;28;20033;-62
2021/10/08 13:32:09;;;;;;;51.65;48.60;;;;;;;;;;5027889;28;20018;-62
2021/10/08 13:34:34;;;;;;;89.40;84.90;;;;;;;;;;5020215;28;20061;-62
2021/10/08 13:37:00;;;;;;;76.75;72.40;;;;;;;;;;5026355;28;20033;-60
2021/10/08 13:39:25;;;;;;;35.63;33.15;;;;;;;;;;5033532;28;20086;-60
2021/10/08 13:41:50;;;;;;;48.58;45.30;;;;;;;;;;5031139;28;20032;-60
2021/10/08 13:44:15;;;;;;;37.50;34.83;;;;;;;;;;5021758;28;20017;-60
2021/10/08 13:46:41;;;;;;;219.13;208.68;;;;;;;;;;5021360;28;20387;-61
2021/10/08 13:49:06;;;;;;;271.08;258.25;;;;;;;;;;5020650;28;20025;-59
2021/10/08 13:51:31;;;;;;;509.75;479.27;;;;;;;;;;5020001;28;20578;-61
2021/10/08 13:53:57;;;;;;;525.55;494.17;;;;;;;;;;5015915;28;20026;-61
2021/10/08 13:56:22;;;;;;;518.95;487.52;;;;;;;;;;5021117;28;20467;-60
2021/10/08 13:58:47;;;;;;;503.90;473.40;;;;;;;;;;5023843;28;20403;-61